sensor_id;sensor_type;location;lat;lon;timestamp;P1;durP1;ratioP1;P2;durP2;ratioP2
36833;SDS011;48003;52.084;5.224;2023-03-23T00:01:11;10.4;;;5.3;;
36833;SDS011;48003;52.084;5.224;2023-03-23T00:04:25;8.4;;;4.7;;
36833;SDS011;48003;52.084;5.224;2023-03-23T00:06:02;11.0;;;4.8;;
36833;SDS011;48003;52.084;5.224;2023-03-23T00:07:38;10.3;;;5.2;;
36833;SDS011;48003;52.084;5.224;2023-03-23T00:10:51;10.7;;;5.11;;
36833;SDS011;48003;52.084;5.224;2023-03-23T00:12:28;9.21;;;4.91;;
36833;SDS011;48003;52.084;5.224;2023-03-23T00:14:07;8.2;;;4.7;;
36833;SDS011;48003;52.084;5.224;2023-03-23T00:15:45;9.5;;;4.8;;
36833;SDS011;48003;52.084;5.224;2023-03-23T00:18:59;10.6;;;5.4;;
36833;SDS011;48003;52.084;5.224;2023-03-23T00:20:37;7.4;;;4.7;;
36833;SDS011;48003;52.084;5.224;2023-03-23T00:22:15;8.4;;;4.8;;
36833;SDS011;48003;52.084;5.224;2023-03-23T00:25:29;11.0;;;4.61;;
36833;SDS011;48003;52.084;5.224;2023-03-23T00:27:05;8.2;;;4.3;;
36833;SDS011;48003;52.084;5.224;2023-03-23T00:28:41;7.3;;;4.91;;
36833;SDS011;48003;52.084;5.224;2023-03-23T00:30:17;8.0;;;4.5;;
36833;SDS011;48003;52.084;5.224;2023-03-23T00:33:30;9.0;;;4.61;;
36833;SDS011;48003;52.084;5.224;2023-03-23T00:35:09;8.0;;;4.41;;
36833;SDS011;48003;52.084;5.224;2023-03-23T00:36:45;9.6;;;4.3;;
36833;SDS011;48003;52.084;5.224;2023-03-23T00:40:00;10.0;;;4.3;;
36833;SDS011;48003;52.084;5.224;2023-03-23T00:41:36;8.2;;;4.1;;
36833;SDS011;48003;52.084;5.224;2023-03-23T00:43:12;6.9;;;4.3;;
36833;SDS011;48003;52.084;5.224;2023-03-23T00:46:25;6.1;;;3.8;;
36833;SDS011;48003;52.084;5.224;2023-03-23T00:48:01;7.8;;;4.0;;
36833;SDS011;48003;52.084;5.224;2023-03-23T00:49:37;7.4;;;3.7;;
36833;SDS011;48003;52.084;5.224;2023-03-23T00:51:14;8.5;;;3.7;;
36833;SDS011;48003;52.084;5.224;2023-03-23T00:54:27;8.4;;;3.9;;
36833;SDS011;48003;52.084;5.224;2023-03-23T00:56:04;8.1;;;3.8;;
36833;SDS011;48003;52.084;5.224;2023-03-23T00:57:41;7.9;;;3.8;;
36833;SDS011;48003;52.084;5.224;2023-03-23T01:00:54;7.1;;;3.7;;
36833;SDS011;48003;52.084;5.224;2023-03-23T01:02:30;6.9;;;3.5;;
36833;SDS011;48003;52.084;5.224;2023-03-23T01:04:06;7.4;;;3.3;;
36833;SDS011;48003;52.084;5.224;2023-03-23T01:07:21;7.5;;;3.1;;
36833;SDS011;48003;52.084;5.224;2023-03-23T01:08:58;6.0;;;3.0;;
36833;SDS011;48003;52.084;5.224;2023-03-23T01:10:35;6.8;;;3.2;;
36833;SDS011;48003;52.084;5.224;2023-03-23T01:12:11;7.9;;;3.2;;
36833;SDS011;48003;52.084;5.224;2023-03-23T01:15:23;6.7;;;3.0;;
36833;SDS011;48003;52.084;5.224;2023-03-23T01:16:59;6.5;;;3.0;;
36833;SDS011;48003;52.084;5.224;2023-03-23T01:18:35;5.8;;;3.2;;
36833;SDS011;48003;52.084;5.224;2023-03-23T01:21:51;5.5;;;3.0;;
36833;SDS011;48003;52.084;5.224;2023-03-23T01:23:27;7.0;;;3.4;;
36833;SDS011;48003;52.084;5.224;2023-03-23T01:25:03;6.2;;;3.0;;
36833;SDS011;48003;52.084;5.224;2023-03-23T01:28:16;6.5;;;3.2;;
36833;SDS011;48003;52.084;5.224;2023-03-23T01:29:52;4.7;;;3.0;;
36833;SDS011;48003;52.084;5.224;2023-03-23T01:31:28;5.5;;;3.2;;
36833;SDS011;48003;52.084;5.224;2023-03-23T01:33:04;6.7;;;3.7;;
36833;SDS011;48003;52.084;5.224;2023-03-23T01:36:18;5.3;;;3.2;;
36833;SDS011;48003;52.084;5.224;2023-03-23T01:37:57;6.3;;;3.2;;
36833;SDS011;48003;52.084;5.224;2023-03-23T01:39:33;6.4;;;3.3;;
36833;SDS011;48003;52.084;5.224;2023-03-23T01:42:50;5.6;;;3.1;;
36833;SDS011;48003;52.084;5.224;2023-03-23T01:45:17;5.4;;;3.4;;
36833;SDS011;48003;52.084;5.224;2023-03-23T01:47:01;7.2;;;3.2;;
36833;SDS011;48003;52.084;5.224;2023-03-23T01:48:38;5.11;;;3.2;;
36833;SDS011;48003;52.084;5.224;2023-03-23T01:50:15;7.2;;;3.5;;
36833;SDS011;48003;52.084;5.224;2023-03-23T01:51:53;5.4;;;3.1;;
36833;SDS011;48003;52.084;5.224;2023-03-23T01:55:16;5.4;;;3.2;;
36833;SDS011;48003;52.084;5.224;2023-03-23T01:56:54;7.5;;;3.5;;
36833;SDS011;48003;52.084;5.224;2023-03-23T01:58:34;6.3;;;3.3;;
36833;SDS011;48003;52.084;5.224;2023-03-23T02:01:50;5.5;;;3.3;;
36833;SDS011;48003;52.084;5.224;2023-03-23T02:03:29;4.7;;;3.5;;
36833;SDS011;48003;52.084;5.224;2023-03-23T02:05:08;6.3;;;3.5;;
36833;SDS011;48003;52.084;5.224;2023-03-23T02:06:49;6.4;;;3.5;;
36833;SDS011;48003;52.084;5.224;2023-03-23T02:10:04;4.91;;;3.7;;
36833;SDS011;48003;52.084;5.224;2023-03-23T02:11:41;6.2;;;4.0;;
36833;SDS011;48003;52.084;5.224;2023-03-23T02:13:17;6.6;;;3.7;;
36833;SDS011;48003;52.084;5.224;2023-03-23T02:14:54;7.9;;;3.6;;
36833;SDS011;48003;52.084;5.224;2023-03-23T02:18:19;7.3;;;4.2;;
36833;SDS011;48003;52.084;5.224;2023-03-23T02:20:17;5.8;;;3.6;;
36833;SDS011;48003;52.084;5.224;2023-03-23T02:22:16;7.9;;;4.1;;
36833;SDS011;48003;52.084;5.224;2023-03-23T02:25:38;6.1;;;3.9;;
36833;SDS011;48003;52.084;5.224;2023-03-23T02:27:38;6.5;;;4.1;;
36833;SDS011;48003;52.084;5.224;2023-03-23T02:30:05;7.2;;;3.7;;
36833;SDS011;48003;52.084;5.224;2023-03-23T02:32:04;5.11;;;3.5;;
36833;SDS011;48003;52.084;5.224;2023-03-23T02:33:50;5.8;;;3.7;;
36833;SDS011;48003;52.084;5.224;2023-03-23T02:37:13;6.4;;;3.5;;
36833;SDS011;48003;52.084;5.224;2023-03-23T02:38:57;4.3;;;3.4;;
36833;SDS011;48003;52.084;5.224;2023-03-23T02:40:41;6.1;;;3.4;;
36833;SDS011;48003;52.084;5.224;2023-03-23T02:42:21;6.4;;;3.5;;
36833;SDS011;48003;52.084;5.224;2023-03-23T02:45:41;9.6;;;3.5;;
36833;SDS011;48003;52.084;5.224;2023-03-23T02:47:21;5.2;;;3.1;;
36833;SDS011;48003;52.084;5.224;2023-03-23T02:49:00;6.6;;;3.3;;
36833;SDS011;48003;52.084;5.224;2023-03-23T02:50:41;5.0;;;3.1;;
36833;SDS011;48003;52.084;5.224;2023-03-23T02:54:03;4.61;;;2.7;;
36833;SDS011;48003;52.084;5.224;2023-03-23T02:55:42;4.61;;;2.7;;
36833;SDS011;48003;52.084;5.224;2023-03-23T02:57:20;6.2;;;2.9;;
36833;SDS011;48003;52.084;5.224;2023-03-23T02:58:58;4.2;;;2.4;;
36833;SDS011;48003;52.084;5.224;2023-03-23T03:02:12;4.0;;;2.6;;
36833;SDS011;48003;52.084;5.224;2023-03-23T03:03:53;4.0;;;2.6;;
36833;SDS011;48003;52.084;5.224;2023-03-23T03:05:35;5.6;;;2.5;;
36833;SDS011;48003;52.084;5.224;2023-03-23T03:07:23;4.2;;;2.21;;
36833;SDS011;48003;52.084;5.224;2023-03-23T03:09:25;3.2;;;2.1;;
36833;SDS011;48003;52.084;5.224;2023-03-23T03:12:51;7.7;;;2.6;;
36833;SDS011;48003;52.084;5.224;2023-03-23T03:14:33;8.2;;;2.8;;
36833;SDS011;48003;52.084;5.224;2023-03-23T03:16:20;4.41;;;2.21;;
36833;SDS011;48003;52.084;5.224;2023-03-23T03:18:04;6.2;;;2.5;;
36833;SDS011;48003;52.084;5.224;2023-03-23T03:19:48;6.2;;;2.21;;
36833;SDS011;48003;52.084;5.224;2023-03-23T03:23:10;5.4;;;2.31;;
36833;SDS011;48003;52.084;5.224;2023-03-23T03:24:49;5.3;;;2.1;;
36833;SDS011;48003;52.084;5.224;2023-03-23T03:26:27;6.7;;;2.1;;
36833;SDS011;48003;52.084;5.224;2023-03-23T03:29:42;6.9;;;2.4;;
36833;SDS011;48003;52.084;5.224;2023-03-23T03:31:22;4.61;;;1.9;;
36833;SDS011;48003;52.084;5.224;2023-03-23T03:33:04;6.6;;;2.1;;
36833;SDS011;48003;52.084;5.224;2023-03-23T03:34:40;5.11;;;2.0;;
36833;SDS011;48003;52.084;5.224;2023-03-23T03:37:57;7.2;;;2.4;;
36833;SDS011;48003;52.084;5.224;2023-03-23T03:39:41;9.5;;;3.7;;
36833;SDS011;48003;52.084;5.224;2023-03-23T03:41:18;5.5;;;2.0;;
36833;SDS011;48003;52.084;5.224;2023-03-23T03:42:55;4.91;;;2.1;;
36833;SDS011;48003;52.084;5.224;2023-03-23T03:46:08;4.5;;;2.1;;
36833;SDS011;48003;52.084;5.224;2023-03-23T03:47:44;5.7;;;2.21;;
36833;SDS011;48003;52.084;5.224;2023-03-23T03:49:21;4.41;;;2.0;;
36833;SDS011;48003;52.084;5.224;2023-03-23T03:52:33;6.8;;;2.1;;
36833;SDS011;48003;52.084;5.224;2023-03-23T03:54:10;6.7;;;2.4;;
36833;SDS011;48003;52.084;5.224;2023-03-23T03:55:46;5.3;;;2.21;;
36833;SDS011;48003;52.084;5.224;2023-03-23T03:58:58;4.1;;;1.9;;
36833;SDS011;48003;52.084;5.224;2023-03-23T04:00:35;6.0;;;2.21;;
36833;SDS011;48003;52.084;5.224;2023-03-23T04:02:11;7.6;;;2.31;;
36833;SDS011;48003;52.084;5.224;2023-03-23T04:03:47;6.6;;;2.1;;
36833;SDS011;48003;52.084;5.224;2023-03-23T04:06:59;6.2;;;2.21;;
36833;SDS011;48003;52.084;5.224;2023-03-23T04:08:36;5.3;;;2.0;;
36833;SDS011;48003;52.084;5.224;2023-03-23T04:10:13;4.0;;;1.8;;
36833;SDS011;48003;52.084;5.224;2023-03-23T04:13:25;5.3;;;1.8;;
36833;SDS011;48003;52.084;5.224;2023-03-23T04:15:01;5.8;;;1.9;;
36833;SDS011;48003;52.084;5.224;2023-03-23T04:16:38;5.11;;;1.9;;
36833;SDS011;48003;52.084;5.224;2023-03-23T04:19:52;5.11;;;2.0;;
36833;SDS011;48003;52.084;5.224;2023-03-23T04:21:29;5.5;;;1.9;;
36833;SDS011;48003;52.084;5.224;2023-03-23T04:23:05;5.5;;;1.9;;
36833;SDS011;48003;52.084;5.224;2023-03-23T04:24:42;7.4;;;1.9;;
36833;SDS011;48003;52.084;5.224;2023-03-23T04:27:54;6.3;;;2.0;;
36833;SDS011;48003;52.084;5.224;2023-03-23T04:29:30;6.8;;;1.8;;
36833;SDS011;48003;52.084;5.224;2023-03-23T04:31:06;6.7;;;1.8;;
36833;SDS011;48003;52.084;5.224;2023-03-23T04:34:18;7.7;;;1.8;;
36833;SDS011;48003;52.084;5.224;2023-03-23T04:35:55;6.9;;;2.1;;
36833;SDS011;48003;52.084;5.224;2023-03-23T04:37:36;9.21;;;2.0;;
36833;SDS011;48003;52.084;5.224;2023-03-23T04:40:50;9.0;;;2.0;;
36833;SDS011;48003;52.084;5.224;2023-03-23T04:42:28;4.8;;;1.5;;
36833;SDS011;48003;52.084;5.224;2023-03-23T04:44:06;8.1;;;1.6;;
36833;SDS011;48003;52.084;5.224;2023-03-23T04:45:43;7.0;;;1.7;;
36833;SDS011;48003;52.084;5.224;2023-03-23T04:48:55;7.7;;;2.0;;
36833;SDS011;48003;52.084;5.224;2023-03-23T04:50:32;8.6;;;2.21;;
36833;SDS011;48003;52.084;5.224;2023-03-23T04:52:09;8.5;;;1.7;;
36833;SDS011;48003;52.084;5.224;2023-03-23T04:55:21;8.4;;;2.0;;
36833;SDS011;48003;52.084;5.224;2023-03-23T04:56:57;11.5;;;1.9;;
36833;SDS011;48003;52.084;5.224;2023-03-23T04:58:33;10.1;;;2.1;;
36833;SDS011;48003;52.084;5.224;2023-03-23T05:00:10;9.1;;;1.8;;
36833;SDS011;48003;52.084;5.224;2023-03-23T05:03:23;6.4;;;1.7;;
36833;SDS011;48003;52.084;5.224;2023-03-23T05:04:59;9.6;;;1.9;;
36833;SDS011;48003;52.084;5.224;2023-03-23T05:06:35;11.1;;;2.0;;
36833;SDS011;48003;52.084;5.224;2023-03-23T05:09:47;8.9;;;2.0;;
36833;SDS011;48003;52.084;5.224;2023-03-23T05:11:24;10.3;;;2.1;;
36833;SDS011;48003;52.084;5.224;2023-03-23T05:13:00;9.81;;;2.4;;
36833;SDS011;48003;52.084;5.224;2023-03-23T05:16:16;9.0;;;1.8;;
36833;SDS011;48003;52.084;5.224;2023-03-23T05:17:52;11.0;;;1.7;;
36833;SDS011;48003;52.084;5.224;2023-03-23T05:19:28;13.1;;;2.6;;
36833;SDS011;48003;52.084;5.224;2023-03-23T05:21:04;12.1;;;2.4;;
36833;SDS011;48003;52.084;5.224;2023-03-23T05:24:17;10.8;;;2.31;;
36833;SDS011;48003;52.084;5.224;2023-03-23T05:25:54;11.7;;;2.21;;
36833;SDS011;48003;52.084;5.224;2023-03-23T05:27:31;10.21;;;2.1;;
36833;SDS011;48003;52.084;5.224;2023-03-23T05:30:43;11.8;;;2.1;;
36833;SDS011;48003;52.084;5.224;2023-03-23T05:32:19;13.6;;;2.31;;
36833;SDS011;48003;52.084;5.224;2023-03-23T05:33:55;9.21;;;2.1;;
36833;SDS011;48003;52.084;5.224;2023-03-23T05:37:08;11.7;;;2.6;;
36833;SDS011;48003;52.084;5.224;2023-03-23T05:38:45;9.5;;;2.0;;
36833;SDS011;48003;52.084;5.224;2023-03-23T05:40:21;12.3;;;2.6;;
36833;SDS011;48003;52.084;5.224;2023-03-23T05:43:33;10.6;;;2.31;;
36833;SDS011;48003;52.084;5.224;2023-03-23T05:45:09;10.0;;;2.4;;
36833;SDS011;48003;52.084;5.224;2023-03-23T05:46:47;9.81;;;2.31;;
36833;SDS011;48003;52.084;5.224;2023-03-23T05:48:23;10.0;;;2.6;;
36833;SDS011;48003;52.084;5.224;2023-03-23T05:51:37;9.9;;;2.6;;
36833;SDS011;48003;52.084;5.224;2023-03-23T05:53:13;13.4;;;3.2;;
36833;SDS011;48003;52.084;5.224;2023-03-23T05:54:49;11.2;;;2.5;;
36833;SDS011;48003;52.084;5.224;2023-03-23T05:58:01;11.4;;;2.6;;
36833;SDS011;48003;52.084;5.224;2023-03-23T05:59:37;15.8;;;2.9;;
36833;SDS011;48003;52.084;5.224;2023-03-23T06:01:13;11.9;;;2.7;;
36833;SDS011;48003;52.084;5.224;2023-03-23T06:04:30;11.9;;;2.4;;
36833;SDS011;48003;52.084;5.224;2023-03-23T06:06:08;12.2;;;2.8;;
36833;SDS011;48003;52.084;5.224;2023-03-23T06:07:46;16.8;;;3.1;;
36833;SDS011;48003;52.084;5.224;2023-03-23T06:09:22;14.8;;;2.8;;
36833;SDS011;48003;52.084;5.224;2023-03-23T06:12:34;12.2;;;2.5;;
36833;SDS011;48003;52.084;5.224;2023-03-23T06:14:11;12.9;;;3.2;;
36833;SDS011;48003;52.084;5.224;2023-03-23T06:15:48;13.3;;;3.0;;
36833;SDS011;48003;52.084;5.224;2023-03-23T06:19:00;11.9;;;2.5;;
36833;SDS011;48003;52.084;5.224;2023-03-23T06:20:36;11.8;;;2.8;;
36833;SDS011;48003;52.084;5.224;2023-03-23T06:22:12;12.8;;;2.7;;
36833;SDS011;48003;52.084;5.224;2023-03-23T06:25:25;8.9;;;2.7;;
36833;SDS011;48003;52.084;5.224;2023-03-23T06:27:01;12.9;;;3.0;;
36833;SDS011;48003;52.084;5.224;2023-03-23T06:28:37;14.6;;;3.1;;
36833;SDS011;48003;52.084;5.224;2023-03-23T06:30:14;11.4;;;2.8;;
36833;SDS011;48003;52.084;5.224;2023-03-23T06:33:32;13.5;;;2.7;;
36833;SDS011;48003;52.084;5.224;2023-03-23T06:35:09;13.5;;;2.7;;
36833;SDS011;48003;52.084;5.224;2023-03-23T06:36:47;13.6;;;3.4;;
36833;SDS011;48003;52.084;5.224;2023-03-23T06:39:59;10.3;;;2.5;;
36833;SDS011;48003;52.084;5.224;2023-03-23T06:41:35;14.6;;;3.0;;
36833;SDS011;48003;52.084;5.224;2023-03-23T06:43:12;11.8;;;3.1;;
36833;SDS011;48003;52.084;5.224;2023-03-23T06:44:49;10.9;;;2.9;;
36833;SDS011;48003;52.084;5.224;2023-03-23T06:48:01;12.0;;;2.9;;
36833;SDS011;48003;52.084;5.224;2023-03-23T06:49:37;10.8;;;2.6;;
36833;SDS011;48003;52.084;5.224;2023-03-23T06:51:13;15.2;;;3.2;;
36833;SDS011;48003;52.084;5.224;2023-03-23T06:54:27;16.61;;;2.7;;
36833;SDS011;48003;52.084;5.224;2023-03-23T06:56:03;10.6;;;2.5;;
36833;SDS011;48003;52.084;5.224;2023-03-23T06:57:39;13.1;;;2.7;;
36833;SDS011;48003;52.084;5.224;2023-03-23T07:00:53;12.5;;;2.7;;
36833;SDS011;48003;52.084;5.224;2023-03-23T07:02:29;14.8;;;3.0;;
36833;SDS011;48003;52.084;5.224;2023-03-23T07:04:05;15.6;;;2.7;;
36833;SDS011;48003;52.084;5.224;2023-03-23T07:05:41;12.6;;;2.8;;
36833;SDS011;48003;52.084;5.224;2023-03-23T07:08:58;14.4;;;3.3;;
36833;SDS011;48003;52.084;5.224;2023-03-23T07:10:34;13.7;;;3.2;;
36833;SDS011;48003;52.084;5.224;2023-03-23T07:12:10;11.0;;;3.0;;
36833;SDS011;48003;52.084;5.224;2023-03-23T07:15:22;8.71;;;2.8;;
36833;SDS011;48003;52.084;5.224;2023-03-23T07:16:58;10.1;;;2.6;;
36833;SDS011;48003;52.084;5.224;2023-03-23T07:18:35;12.7;;;2.9;;
36833;SDS011;48003;52.084;5.224;2023-03-23T07:21:48;11.6;;;2.8;;
36833;SDS011;48003;52.084;5.224;2023-03-23T07:23:24;10.5;;;2.6;;
36833;SDS011;48003;52.084;5.224;2023-03-23T07:25:00;9.71;;;2.4;;
36833;SDS011;48003;52.084;5.224;2023-03-23T07:26:36;9.9;;;2.5;;
36833;SDS011;48003;52.084;5.224;2023-03-23T07:29:48;11.7;;;2.6;;
36833;SDS011;48003;52.084;5.224;2023-03-23T07:31:25;11.8;;;2.4;;
36833;SDS011;48003;52.084;5.224;2023-03-23T07:33:03;14.1;;;2.6;;
36833;SDS011;48003;52.084;5.224;2023-03-23T07:36:17;9.5;;;2.5;;
36833;SDS011;48003;52.084;5.224;2023-03-23T07:37:53;15.5;;;2.8;;
36833;SDS011;48003;52.084;5.224;2023-03-23T07:39:29;10.6;;;2.31;;
36833;SDS011;48003;52.084;5.224;2023-03-23T07:42:43;9.81;;;2.5;;
36833;SDS011;48003;52.084;5.224;2023-03-23T07:45:58;10.3;;;2.6;;
36833;SDS011;48003;52.084;5.224;2023-03-23T07:47:34;11.8;;;2.5;;
36833;SDS011;48003;52.084;5.224;2023-03-23T07:50:46;11.4;;;2.7;;
36833;SDS011;48003;52.084;5.224;2023-03-23T07:52:22;11.9;;;2.6;;
36833;SDS011;48003;52.084;5.224;2023-03-23T07:53:59;7.9;;;2.21;;
36833;SDS011;48003;52.084;5.224;2023-03-23T07:57:11;10.1;;;2.7;;
36833;SDS011;48003;52.084;5.224;2023-03-23T07:58:47;11.0;;;2.7;;
36833;SDS011;48003;52.084;5.224;2023-03-23T08:00:24;10.7;;;2.8;;
36833;SDS011;48003;52.084;5.224;2023-03-23T08:03:38;10.3;;;2.21;;
36833;SDS011;48003;52.084;5.224;2023-03-23T08:05:14;9.71;;;2.5;;
36833;SDS011;48003;52.084;5.224;2023-03-23T08:06:51;10.6;;;2.6;;
36833;SDS011;48003;52.084;5.224;2023-03-23T08:08:27;10.4;;;2.6;;
36833;SDS011;48003;52.084;5.224;2023-03-23T08:11:40;9.4;;;2.4;;
36833;SDS011;48003;52.084;5.224;2023-03-23T08:13:17;10.8;;;2.8;;
36833;SDS011;48003;52.084;5.224;2023-03-23T08:14:53;7.9;;;2.4;;
36833;SDS011;48003;52.084;5.224;2023-03-23T08:18:06;9.5;;;2.31;;
36833;SDS011;48003;52.084;5.224;2023-03-23T08:19:43;10.3;;;2.6;;
36833;SDS011;48003;52.084;5.224;2023-03-23T08:21:19;11.2;;;2.7;;
36833;SDS011;48003;52.084;5.224;2023-03-23T08:24:32;9.4;;;2.21;;
36833;SDS011;48003;52.084;5.224;2023-03-23T08:26:09;8.2;;;2.31;;
36833;SDS011;48003;52.084;5.224;2023-03-23T08:27:46;7.1;;;2.31;;
36833;SDS011;48003;52.084;5.224;2023-03-23T08:29:23;9.1;;;2.5;;
36833;SDS011;48003;52.084;5.224;2023-03-23T08:32:36;8.2;;;2.6;;
36833;SDS011;48003;52.084;5.224;2023-03-23T08:34:13;8.71;;;2.8;;
36833;SDS011;48003;52.084;5.224;2023-03-23T08:35:54;8.31;;;2.4;;
36833;SDS011;48003;52.084;5.224;2023-03-23T08:39:08;9.6;;;2.5;;
36833;SDS011;48003;52.084;5.224;2023-03-23T08:40:44;10.4;;;2.5;;
36833;SDS011;48003;52.084;5.224;2023-03-23T08:42:20;9.6;;;2.5;;
36833;SDS011;48003;52.084;5.224;2023-03-23T08:45:32;10.21;;;2.7;;
36833;SDS011;48003;52.084;5.224;2023-03-23T08:47:08;10.0;;;2.7;;
36833;SDS011;48003;52.084;5.224;2023-03-23T08:48:45;12.4;;;2.4;;
36833;SDS011;48003;52.084;5.224;2023-03-23T08:50:22;9.4;;;2.31;;
36833;SDS011;48003;52.084;5.224;2023-03-23T08:53:38;11.8;;;2.7;;
36833;SDS011;48003;52.084;5.224;2023-03-23T08:55:15;10.21;;;2.6;;
36833;SDS011;48003;52.084;5.224;2023-03-23T08:56:52;12.2;;;2.7;;
36833;SDS011;48003;52.084;5.224;2023-03-23T09:00:06;10.6;;;2.21;;
36833;SDS011;48003;52.084;5.224;2023-03-23T09:01:45;10.8;;;2.8;;
36833;SDS011;48003;52.084;5.224;2023-03-23T09:03:21;9.6;;;2.4;;
36833;SDS011;48003;52.084;5.224;2023-03-23T09:04:57;11.4;;;2.8;;
36833;SDS011;48003;52.084;5.224;2023-03-23T09:08:10;11.1;;;2.8;;
36833;SDS011;48003;52.084;5.224;2023-03-23T09:09:47;13.3;;;2.8;;
36833;SDS011;48003;52.084;5.224;2023-03-23T09:11:23;11.6;;;2.7;;
36833;SDS011;48003;52.084;5.224;2023-03-23T09:14:35;12.3;;;2.7;;
36833;SDS011;48003;52.084;5.224;2023-03-23T09:16:13;11.8;;;2.6;;
36833;SDS011;48003;52.084;5.224;2023-03-23T09:17:50;10.4;;;2.8;;
36833;SDS011;48003;52.084;5.224;2023-03-23T09:21:04;11.3;;;2.5;;
36833;SDS011;48003;52.084;5.224;2023-03-23T09:22:42;10.8;;;2.9;;
36833;SDS011;48003;52.084;5.224;2023-03-23T09:24:21;11.5;;;2.9;;
36833;SDS011;48003;52.084;5.224;2023-03-23T09:25:59;13.1;;;3.1;;
36833;SDS011;48003;52.084;5.224;2023-03-23T09:29:14;13.2;;;2.8;;
36833;SDS011;48003;52.084;5.224;2023-03-23T09:30:50;10.3;;;2.6;;
36833;SDS011;48003;52.084;5.224;2023-03-23T09:32:26;12.2;;;2.7;;
36833;SDS011;48003;52.084;5.224;2023-03-23T09:35:38;12.6;;;3.5;;
36833;SDS011;48003;52.084;5.224;2023-03-23T09:37:15;13.7;;;3.1;;
36833;SDS011;48003;52.084;5.224;2023-03-23T09:38:52;15.8;;;3.2;;
36833;SDS011;48003;52.084;5.224;2023-03-23T09:40:30;16.4;;;3.6;;
36833;SDS011;48003;52.084;5.224;2023-03-23T09:44:14;11.4;;;2.6;;
36833;SDS011;48003;52.084;5.224;2023-03-23T09:46:01;14.2;;;2.8;;
36833;SDS011;48003;52.084;5.224;2023-03-23T09:48:19;12.9;;;2.7;;
36833;SDS011;48003;52.084;5.224;2023-03-23T09:50:09;15.6;;;2.7;;
36833;SDS011;48003;52.084;5.224;2023-03-23T09:51:49;13.4;;;2.4;;
36833;SDS011;48003;52.084;5.224;2023-03-23T09:53:30;15.0;;;2.9;;
36833;SDS011;48003;52.084;5.224;2023-03-23T09:55:13;12.8;;;2.8;;
36833;SDS011;48003;52.084;5.224;2023-03-23T09:58:32;13.9;;;2.7;;
36833;SDS011;48003;52.084;5.224;2023-03-23T10:00:18;8.71;;;2.21;;
36833;SDS011;48003;52.084;5.224;2023-03-23T10:02:02;11.2;;;2.7;;
36833;SDS011;48003;52.084;5.224;2023-03-23T10:03:58;12.1;;;3.0;;
36833;SDS011;48003;52.084;5.224;2023-03-23T10:05:52;14.1;;;2.8;;
36833;SDS011;48003;52.084;5.224;2023-03-23T10:09:06;15.7;;;2.8;;
36833;SDS011;48003;52.084;5.224;2023-03-23T10:10:53;8.4;;;2.9;;
36833;SDS011;48003;52.084;5.224;2023-03-23T10:12:38;15.8;;;2.7;;
36833;SDS011;48003;52.084;5.224;2023-03-23T10:14:28;15.1;;;3.1;;
36833;SDS011;48003;52.084;5.224;2023-03-23T10:16:17;12.0;;;2.6;;
36833;SDS011;48003;52.084;5.224;2023-03-23T10:20:00;12.0;;;3.0;;
36833;SDS011;48003;52.084;5.224;2023-03-23T10:21:51;11.3;;;2.8;;
36833;SDS011;48003;52.084;5.224;2023-03-23T10:23:41;10.1;;;2.4;;
36833;SDS011;48003;52.084;5.224;2023-03-23T10:25:28;15.4;;;2.7;;
36833;SDS011;48003;52.084;5.224;2023-03-23T10:27:11;10.3;;;2.4;;
36833;SDS011;48003;52.084;5.224;2023-03-23T10:28:56;15.5;;;2.9;;
36833;SDS011;48003;52.084;5.224;2023-03-23T10:32:17;11.8;;;2.31;;
36833;SDS011;48003;52.084;5.224;2023-03-23T10:33:58;13.5;;;3.0;;
36833;SDS011;48003;52.084;5.224;2023-03-23T10:35:42;14.1;;;2.9;;
36833;SDS011;48003;52.084;5.224;2023-03-23T10:37:34;14.9;;;3.1;;
36833;SDS011;48003;52.084;5.224;2023-03-23T10:39:16;13.9;;;3.0;;
36833;SDS011;48003;52.084;5.224;2023-03-23T10:42:41;15.3;;;2.7;;
36833;SDS011;48003;52.084;5.224;2023-03-23T10:44:19;13.0;;;2.5;;
36833;SDS011;48003;52.084;5.224;2023-03-23T10:46:00;14.9;;;2.6;;
36833;SDS011;48003;52.084;5.224;2023-03-23T10:47:48;15.2;;;3.0;;
36833;SDS011;48003;52.084;5.224;2023-03-23T10:49:32;14.0;;;2.7;;
36833;SDS011;48003;52.084;5.224;2023-03-23T10:52:54;14.1;;;2.8;;
36833;SDS011;48003;52.084;5.224;2023-03-23T10:54:36;11.4;;;2.9;;
36833;SDS011;48003;52.084;5.224;2023-03-23T10:56:22;10.7;;;2.5;;
36833;SDS011;48003;52.084;5.224;2023-03-23T10:58:03;12.2;;;3.0;;
36833;SDS011;48003;52.084;5.224;2023-03-23T11:01:18;13.9;;;2.9;;
36833;SDS011;48003;52.084;5.224;2023-03-23T11:02:58;13.9;;;2.9;;
36833;SDS011;48003;52.084;5.224;2023-03-23T11:04:37;14.4;;;2.8;;
36833;SDS011;48003;52.084;5.224;2023-03-23T11:07:57;14.3;;;3.1;;
36833;SDS011;48003;52.084;5.224;2023-03-23T11:09:36;15.3;;;2.7;;
36833;SDS011;48003;52.084;5.224;2023-03-23T11:11:15;11.8;;;2.5;;
36833;SDS011;48003;52.084;5.224;2023-03-23T11:12:56;11.2;;;2.5;;
36833;SDS011;48003;52.084;5.224;2023-03-23T11:16:21;13.2;;;2.8;;
36833;SDS011;48003;52.084;5.224;2023-03-23T11:18:01;13.3;;;3.0;;
36833;SDS011;48003;52.084;5.224;2023-03-23T11:19:39;11.8;;;2.5;;
36833;SDS011;48003;52.084;5.224;2023-03-23T11:21:15;8.9;;;2.6;;
36833;SDS011;48003;52.084;5.224;2023-03-23T11:24:29;9.1;;;2.4;;
36833;SDS011;48003;52.084;5.224;2023-03-23T11:26:10;16.0;;;3.4;;
36833;SDS011;48003;52.084;5.224;2023-03-23T11:27:50;10.4;;;2.5;;
36833;SDS011;48003;52.084;5.224;2023-03-23T11:29:26;12.0;;;2.6;;
36833;SDS011;48003;52.084;5.224;2023-03-23T11:32:43;11.3;;;2.5;;
36833;SDS011;48003;52.084;5.224;2023-03-23T11:34:21;10.4;;;2.31;;
36833;SDS011;48003;52.084;5.224;2023-03-23T11:36:00;11.3;;;3.1;;
36833;SDS011;48003;52.084;5.224;2023-03-23T11:39:21;10.9;;;2.5;;
36833;SDS011;48003;52.084;5.224;2023-03-23T11:40:59;12.0;;;2.5;;
36833;SDS011;48003;52.084;5.224;2023-03-23T11:42:38;14.4;;;3.2;;
36833;SDS011;48003;52.084;5.224;2023-03-23T11:44:21;11.5;;;2.7;;
36833;SDS011;48003;52.084;5.224;2023-03-23T11:46:01;12.7;;;2.8;;
36833;SDS011;48003;52.084;5.224;2023-03-23T11:49:38;12.9;;;2.7;;
36833;SDS011;48003;52.084;5.224;2023-03-23T11:53:10;13.3;;;2.9;;
36833;SDS011;48003;52.084;5.224;2023-03-23T11:54:56;13.5;;;2.9;;
36833;SDS011;48003;52.084;5.224;2023-03-23T11:56:41;13.9;;;3.0;;
36833;SDS011;48003;52.084;5.224;2023-03-23T11:59:56;11.7;;;2.8;;
36833;SDS011;48003;52.084;5.224;2023-03-23T12:01:43;15.2;;;3.0;;
36833;SDS011;48003;52.084;5.224;2023-03-23T12:03:35;14.1;;;2.7;;
36833;SDS011;48003;52.084;5.224;2023-03-23T12:05:34;13.2;;;2.8;;
36833;SDS011;48003;52.084;5.224;2023-03-23T12:07:24;14.2;;;2.8;;
36833;SDS011;48003;52.084;5.224;2023-03-23T12:09:21;11.2;;;2.8;;
36833;SDS011;48003;52.084;5.224;2023-03-23T12:11:14;12.0;;;2.7;;
36833;SDS011;48003;52.084;5.224;2023-03-23T12:14:53;11.5;;;2.7;;
36833;SDS011;48003;52.084;5.224;2023-03-23T12:16:41;12.5;;;2.4;;
36833;SDS011;48003;52.084;5.224;2023-03-23T12:18:37;13.6;;;2.9;;
36833;SDS011;48003;52.084;5.224;2023-03-23T12:20:31;12.5;;;2.8;;
36833;SDS011;48003;52.084;5.224;2023-03-23T12:22:19;12.5;;;2.5;;
36833;SDS011;48003;52.084;5.224;2023-03-23T12:24:22;13.0;;;2.6;;
36833;SDS011;48003;52.084;5.224;2023-03-23T12:26:15;11.0;;;2.21;;
36833;SDS011;48003;52.084;5.224;2023-03-23T12:27:58;11.4;;;2.5;;
36833;SDS011;48003;52.084;5.224;2023-03-23T12:31:41;14.0;;;2.8;;
36833;SDS011;48003;52.084;5.224;2023-03-23T12:35:20;9.0;;;2.5;;
36833;SDS011;48003;52.084;5.224;2023-03-23T12:37:16;10.21;;;2.5;;
36833;SDS011;48003;52.084;5.224;2023-03-23T12:39:14;8.9;;;2.0;;
36833;SDS011;48003;52.084;5.224;2023-03-23T12:41:20;11.7;;;2.31;;
36833;SDS011;48003;52.084;5.224;2023-03-23T12:43:04;11.0;;;2.21;;
36833;SDS011;48003;52.084;5.224;2023-03-23T12:44:56;14.2;;;2.4;;
36833;SDS011;48003;52.084;5.224;2023-03-23T12:46:52;9.6;;;2.31;;
36833;SDS011;48003;52.084;5.224;2023-03-23T12:49:29;10.8;;;2.4;;
36833;SDS011;48003;52.084;5.224;2023-03-23T12:51:13;10.21;;;2.4;;
36833;SDS011;48003;52.084;5.224;2023-03-23T12:52:58;8.31;;;1.9;;
36833;SDS011;48003;52.084;5.224;2023-03-23T12:56:23;8.1;;;2.0;;
36833;SDS011;48003;52.084;5.224;2023-03-23T12:58:05;7.3;;;1.9;;
36833;SDS011;48003;52.084;5.224;2023-03-23T12:59:47;7.7;;;2.1;;